createdAt,value
2018-08-11T00:02:20.763Z,21.90
2018-08-11T00:08:24.327Z,21.80
2018-08-11T00:10:57.127Z,21.70
2018-08-11T00:13:30.488Z,21.60
2018-08-11T00:16:03.449Z,21.50
2018-08-11T00:18:36.193Z,21.40
2018-08-11T00:21:09.511Z,21.30
2018-08-11T00:23:42.399Z,21.20
2018-08-11T00:29:36.158Z,21.00
2018-08-11T00:32:09.012Z,20.90
2018-08-11T00:34:42.526Z,20.90
2018-08-11T00:37:15.127Z,20.90
2018-08-11T00:39:48.745Z,20.80
2018-08-11T00:42:21.303Z,20.70
2018-08-11T00:44:53.853Z,20.60
2018-08-11T00:47:29.657Z,20.70
2018-08-11T00:50:02.275Z,20.60
2018-08-11T00:52:35.040Z,20.50
2018-08-11T00:55:09.768Z,20.50
2018-08-11T00:57:42.741Z,20.50
2018-08-11T01:00:18.593Z,20.50
2018-08-11T01:02:54.557Z,20.30
2018-08-11T01:05:28.434Z,20.20
2018-08-11T01:08:01.799Z,20.30
2018-08-11T01:10:37.304Z,20.30
2018-08-11T01:13:10.693Z,20.20
2018-08-11T01:16:04.933Z,20.20
2018-08-11T01:18:50.722Z,20.20
2018-08-11T01:21:30.524Z,20.10
2018-08-11T01:24:05.199Z,20.10
2018-08-11T01:26:38.745Z,20.10
2018-08-11T01:29:12.307Z,20.00
2018-08-11T01:31:44.821Z,20.00
2018-08-11T01:34:17.332Z,19.90
2018-08-11T01:36:49.921Z,19.90
2018-08-11T01:39:22.614Z,19.90
2018-08-11T01:41:55.216Z,19.80
2018-08-11T01:47:48.906Z,19.80
2018-08-11T01:50:21.767Z,19.70
2018-08-11T01:56:26.748Z,19.60
2018-08-11T01:59:00.597Z,19.60
2018-08-11T02:01:34.173Z,19.60
2018-08-11T02:04:09.737Z,19.60
2018-08-11T02:06:44.147Z,19.60
2018-08-11T02:09:17.731Z,19.60
2018-08-11T02:11:54.465Z,19.60
2018-08-11T02:14:27.728Z,19.50
2018-08-11T02:17:00.787Z,19.50
2018-08-11T02:19:35.280Z,19.40
2018-08-11T02:22:08.211Z,19.40
2018-08-11T02:24:41.339Z,19.40
2018-08-11T02:27:14.424Z,19.40
2018-08-11T02:29:48.434Z,19.30
2018-08-11T02:32:21.535Z,19.30
2018-08-11T02:34:54.497Z,19.30
2018-08-11T02:37:25.639Z,19.20
2018-08-11T02:39:56.787Z,19.20
2018-08-11T02:42:33.901Z,19.20
2018-08-11T02:45:06.534Z,19.20
2018-08-11T02:47:37.659Z,19.10
2018-08-11T02:50:09.756Z,19.10
2018-08-11T02:52:41.686Z,19.00
2018-08-11T02:55:14.009Z,18.90
2018-08-11T02:57:45.036Z,18.90
2018-08-11T03:00:16.436Z,18.80
2018-08-11T03:02:48.238Z,18.80
2018-08-11T03:05:19.202Z,18.70
2018-08-11T03:07:51.107Z,18.70
2018-08-11T03:10:22.188Z,18.60
2018-08-11T03:12:53.170Z,18.60
2018-08-11T03:15:24.368Z,18.60
2018-08-11T03:17:55.340Z,18.60
2018-08-11T03:20:26.281Z,18.60
2018-08-11T03:25:40.097Z,18.40
2018-08-11T03:28:11.176Z,18.30
2018-08-11T03:30:42.231Z,18.20
2018-08-11T03:33:13.239Z,18.20
2018-08-11T03:35:44.313Z,18.10
2018-08-11T03:38:15.508Z,18.10
2018-08-11T03:40:46.953Z,18.00
2018-08-11T03:43:18.018Z,18.00
2018-08-11T03:45:49.164Z,18.00
2018-08-11T03:48:20.346Z,18.10
2018-08-11T03:50:55.948Z,18.20
2018-08-11T03:53:27.031Z,18.20
2018-08-11T03:59:05.095Z,18.20
2018-08-11T04:01:35.902Z,18.20
2018-08-11T04:04:06.740Z,18.10
2018-08-11T04:06:37.654Z,18.10
2018-08-11T04:09:10.139Z,18.00
2018-08-11T04:11:45.825Z,18.00
2018-08-11T04:14:17.395Z,17.90
2018-08-11T04:16:50.843Z,17.90
2018-08-11T04:19:22.812Z,17.90
2018-08-11T04:24:35.713Z,17.80
2018-08-11T04:27:07.229Z,17.80
2018-08-11T04:29:38.102Z,17.80
2018-08-11T04:32:11.620Z,17.90
2018-08-11T04:34:45.264Z,17.90
2018-08-11T04:37:17.863Z,17.90
2018-08-11T04:39:50.585Z,17.90
2018-08-11T04:42:23.303Z,17.80
2018-08-11T04:44:55.959Z,17.60
2018-08-11T04:50:49.439Z,17.50
2018-08-11T04:53:21.894Z,17.40
2018-08-11T04:55:54.840Z,17.30
2018-08-11T04:58:27.110Z,17.30
2018-08-11T05:00:59.800Z,17.30
2018-08-11T05:03:32.259Z,17.20
2018-08-11T05:06:04.551Z,17.20
2018-08-11T05:08:36.883Z,17.10
2018-08-11T05:14:30.306Z,17.10
2018-08-11T05:17:02.829Z,17.00
2018-08-11T05:19:35.215Z,16.90
2018-08-11T05:22:07.858Z,16.90
2018-08-11T05:24:40.227Z,16.90
2018-08-11T05:27:12.845Z,16.90
2018-08-11T05:29:45.398Z,16.90
2018-08-11T05:32:17.959Z,16.90
2018-08-11T05:34:50.486Z,16.80
2018-08-11T05:37:22.966Z,16.70
2018-08-11T05:39:55.338Z,16.70
2018-08-11T05:42:27.662Z,16.70
2018-08-11T05:45:00.188Z,16.70
2018-08-11T05:47:32.872Z,16.70
2018-08-11T05:53:26.062Z,16.70
2018-08-11T05:55:58.342Z,16.70
2018-08-11T06:01:51.119Z,16.60
2018-08-11T06:04:23.530Z,16.60
2018-08-11T06:06:55.834Z,16.50
2018-08-11T06:09:28.164Z,16.50
2018-08-11T06:12:00.588Z,16.50
2018-08-11T06:14:32.876Z,16.50
2018-08-11T06:17:05.419Z,16.60
2018-08-11T06:22:58.846Z,16.70
2018-08-11T06:25:31.312Z,16.80
2018-08-11T06:28:03.646Z,16.80
2018-08-11T06:30:35.923Z,16.90
2018-08-11T06:33:08.729Z,17.00
2018-08-11T06:35:41.065Z,17.00
2018-08-11T06:38:13.408Z,17.00
2018-08-11T06:40:45.963Z,17.00
2018-08-11T06:43:18.471Z,17.00
2018-08-11T06:45:50.952Z,17.00
2018-08-11T06:48:23.292Z,17.00
2018-08-11T06:50:55.718Z,17.00
2018-08-11T06:53:28.111Z,17.00
2018-08-11T06:56:36.872Z,17.10
2018-08-11T06:59:09.448Z,17.10
2018-08-11T07:01:41.832Z,17.00
2018-08-11T07:04:14.262Z,17.00
2018-08-11T07:06:46.811Z,17.00
2018-08-11T07:09:19.773Z,16.90
2018-08-11T07:11:52.248Z,16.90
2018-08-11T07:17:45.789Z,16.80
2018-08-11T07:20:18.070Z,16.80
2018-08-11T07:22:50.299Z,16.80
2018-08-11T07:25:22.566Z,16.70
2018-08-11T07:27:55.048Z,16.70
2018-08-11T07:30:28.340Z,16.70
2018-08-11T07:33:00.562Z,16.80
2018-08-11T07:35:32.797Z,16.80
2018-08-11T07:38:05.745Z,16.90
2018-08-11T07:40:38.098Z,17.00
2018-08-11T07:43:10.419Z,17.00
2018-08-11T07:45:42.675Z,17.00
2018-08-11T07:48:14.940Z,17.00
2018-08-11T07:50:47.962Z,17.00
2018-08-11T07:53:20.402Z,17.00
2018-08-11T07:55:52.712Z,17.00
2018-08-11T07:58:24.977Z,17.00
2018-08-11T08:00:57.115Z,17.10
2018-08-11T08:06:50.282Z,17.10
2018-08-11T08:09:22.802Z,17.10
2018-08-11T08:11:55.181Z,17.10
2018-08-11T08:14:27.600Z,17.10
2018-08-11T08:17:00.014Z,17.10
2018-08-11T08:19:32.859Z,17.10
2018-08-11T08:22:05.652Z,17.10
2018-08-11T08:24:38.362Z,17.10
2018-08-11T08:27:10.969Z,17.10
2018-08-11T08:29:44.236Z,17.10
2018-08-11T08:32:16.760Z,17.20
2018-08-11T08:34:49.212Z,17.20
2018-08-11T08:37:21.660Z,17.20
2018-08-11T08:39:54.073Z,17.20
2018-08-11T08:42:26.472Z,17.10
2018-08-11T08:44:59.078Z,17.00
2018-08-11T08:47:32.303Z,16.90
2018-08-11T08:50:04.908Z,16.90
2018-08-11T08:52:37.407Z,16.90
2018-08-11T08:55:10.030Z,16.90
2018-08-11T08:57:42.433Z,16.90
2018-08-11T09:00:14.966Z,17.00
2018-08-11T09:02:48.975Z,17.00
2018-08-11T09:05:22.128Z,17.00
2018-08-11T09:07:54.946Z,17.00
2018-08-11T09:10:27.472Z,17.00
2018-08-11T09:13:00.592Z,17.00
2018-08-11T09:15:33.090Z,17.00
2018-08-11T09:18:05.455Z,17.00
2018-08-11T09:20:37.790Z,17.00
2018-08-11T09:23:10.363Z,17.00
2018-08-11T09:25:42.906Z,16.90
2018-08-11T09:28:15.364Z,16.70
2018-08-11T09:30:47.736Z,16.70
2018-08-11T09:33:20.205Z,16.70
2018-08-11T09:35:52.940Z,16.60
2018-08-11T09:38:25.516Z,16.60
2018-08-11T09:40:58.102Z,16.70
2018-08-11T09:43:30.909Z,16.70
2018-08-11T09:46:03.393Z,16.70
2018-08-11T09:48:35.930Z,16.80
2018-08-11T09:51:08.391Z,16.80
2018-08-11T09:53:40.842Z,16.80
2018-08-11T09:56:13.507Z,16.70
2018-08-11T09:58:46.099Z,16.70
2018-08-11T10:01:22.907Z,16.80
2018-08-11T10:03:55.375Z,16.80
2018-08-11T10:06:27.806Z,16.90
2018-08-11T10:12:21.857Z,17.00
2018-08-11T10:18:15.448Z,16.90
2018-08-11T10:20:48.286Z,16.80
2018-08-11T10:23:21.027Z,16.70
2018-08-11T10:25:53.883Z,16.60
2018-08-11T10:28:27.269Z,16.50
2018-08-11T10:31:00.232Z,16.40
2018-08-11T10:33:33.148Z,16.30
2018-08-11T10:36:05.886Z,16.20
2018-08-11T10:38:38.710Z,16.10
2018-08-11T10:41:11.448Z,16.00
2018-08-11T10:43:44.186Z,15.90
2018-08-11T10:46:17.032Z,15.80
2018-08-11T10:48:49.719Z,15.80
2018-08-11T10:54:50.889Z,15.70
2018-08-11T10:57:23.364Z,15.70
2018-08-11T10:59:55.754Z,15.70
2018-08-11T11:02:28.092Z,15.70
2018-08-11T11:05:00.519Z,15.70
2018-08-11T11:07:32.812Z,15.70
2018-08-11T11:10:05.838Z,15.70
2018-08-11T11:12:38.188Z,15.80
2018-08-11T11:15:11.254Z,15.70
2018-08-11T11:17:43.523Z,15.70
2018-08-11T11:20:15.837Z,15.60
2018-08-11T11:22:48.177Z,15.50
2018-08-11T11:25:20.493Z,15.50
2018-08-11T11:27:52.794Z,15.50
2018-08-11T11:30:26.361Z,15.50
2018-08-11T11:33:43.519Z,15.50
2018-08-11T11:36:16.161Z,15.50
2018-08-11T11:38:48.644Z,15.50
2018-08-11T11:41:21.133Z,15.40
2018-08-11T11:43:53.630Z,15.40
2018-08-11T11:46:26.249Z,15.40
2018-08-11T11:48:58.746Z,15.40
2018-08-11T11:51:31.517Z,15.40
2018-08-11T11:54:04.163Z,15.40
2018-08-11T11:56:36.924Z,15.40
2018-08-11T11:59:09.499Z,15.40
2018-08-11T12:01:44.114Z,15.40
2018-08-11T12:04:16.629Z,15.50
2018-08-11T12:06:49.150Z,15.50
2018-08-11T12:09:21.848Z,15.50
2018-08-11T12:11:54.417Z,15.50
2018-08-11T12:14:26.993Z,15.60
2018-08-11T12:17:00.305Z,15.70
2018-08-11T12:19:33.016Z,15.80
2018-08-11T12:22:06.523Z,16.00
2018-08-11T12:24:39.107Z,16.20
2018-08-11T12:27:11.699Z,16.40
2018-08-11T12:29:44.273Z,16.50
2018-08-11T12:32:16.844Z,16.60
2018-08-11T12:34:49.344Z,16.70
2018-08-11T12:37:21.920Z,16.80
2018-08-11T12:39:54.652Z,17.10
2018-08-11T12:42:27.125Z,17.20
2018-08-11T12:44:59.714Z,17.40
2018-08-11T12:47:32.347Z,17.80
2018-08-11T12:50:04.966Z,18.00
2018-08-11T12:52:39.576Z,18.10
2018-08-11T12:55:11.074Z,18.30
2018-08-11T12:57:43.714Z,18.30
2018-08-11T13:00:16.351Z,18.10
2018-08-11T13:02:49.731Z,18.20
2018-08-11T13:05:30.009Z,18.50
2018-08-11T13:08:13.245Z,18.80
2018-08-11T13:10:55.554Z,19.00
2018-08-11T13:13:28.175Z,19.20
2018-08-11T13:16:13.735Z,19.30
2018-08-11T13:18:46.463Z,19.50
2018-08-11T13:21:28.498Z,20.10
2018-08-11T13:24:04.294Z,20.10
2018-08-11T13:26:41.884Z,20.70
2018-08-11T13:29:17.307Z,20.30
2018-08-11T13:31:52.795Z,20.60
2018-08-11T13:34:25.980Z,21.00
2018-08-11T13:37:00.601Z,21.20
2018-08-11T13:39:33.226Z,21.20
2018-08-11T13:42:06.883Z,21.00
2018-08-11T13:44:40.494Z,21.30
2018-08-11T13:47:24.202Z,22.10
2018-08-11T13:49:55.821Z,21.80
2018-08-11T13:52:26.647Z,21.90
2018-08-11T13:54:57.407Z,21.90
2018-08-11T13:57:28.245Z,22.40
2018-08-11T13:59:59.050Z,22.30
2018-08-11T14:02:29.872Z,22.20
2018-08-11T14:05:01.179Z,21.90
2018-08-11T14:07:31.961Z,21.90
2018-08-11T14:10:02.869Z,21.90
2018-08-11T14:12:33.696Z,22.00
2018-08-11T14:15:04.625Z,22.20
2018-08-11T14:17:35.624Z,22.60
2018-08-11T14:23:24.621Z,22.70
2018-08-11T14:29:02.460Z,22.90
2018-08-11T14:31:33.208Z,22.70
2018-08-11T14:34:09.357Z,22.70
2018-08-11T14:36:40.829Z,23.50
2018-08-11T14:39:13.588Z,23.90
2018-08-11T14:41:46.118Z,24.00
2018-08-11T14:44:18.608Z,23.50
2018-08-11T14:46:51.167Z,24.10
2018-08-11T14:49:23.753Z,24.40
2018-08-11T14:51:56.431Z,23.80
2018-08-11T14:54:28.954Z,24.00
2018-08-11T14:57:01.482Z,24.00
2018-08-11T14:59:36.016Z,24.80
2018-08-11T15:02:13.957Z,24.60
2018-08-11T15:04:46.627Z,24.30
2018-08-11T15:07:20.194Z,24.20
2018-08-11T15:09:54.877Z,24.00
2018-08-11T15:12:27.603Z,24.10
2018-08-11T15:15:02.164Z,24.50
2018-08-11T15:17:34.650Z,24.40
2018-08-11T15:20:10.992Z,23.90
2018-08-11T15:22:43.573Z,23.60
2018-08-11T15:25:16.419Z,23.50
2018-08-11T15:27:49.287Z,23.70
2018-08-11T15:30:25.053Z,24.00
2018-08-11T15:32:57.904Z,24.50
2018-08-11T15:35:31.398Z,24.70
2018-08-11T15:38:04.080Z,24.90
2018-08-11T15:40:36.642Z,24.20
2018-08-11T15:43:09.334Z,24.90
2018-08-11T15:45:42.451Z,25.10
2018-08-11T15:48:14.957Z,25.00
2018-08-11T15:50:47.446Z,24.50
2018-08-11T15:53:21.752Z,24.80
2018-08-11T15:55:54.376Z,25.20
2018-08-11T15:58:26.970Z,25.50
2018-08-11T16:00:59.834Z,25.20
2018-08-11T16:03:33.358Z,25.10
2018-08-11T16:06:06.664Z,25.00
2018-08-11T16:08:39.367Z,25.30
2018-08-11T16:11:11.933Z,25.60
2018-08-11T16:13:45.365Z,26.00
2018-08-11T16:16:17.829Z,26.10
2018-08-11T16:18:50.907Z,25.90
2018-08-11T16:21:23.998Z,25.50
2018-08-11T16:23:56.726Z,25.80
2018-08-11T16:26:30.301Z,25.80
2018-08-11T16:29:04.424Z,25.70
2018-08-11T16:31:36.957Z,25.80
2018-08-11T16:37:31.030Z,26.50
2018-08-11T16:40:03.314Z,25.90
2018-08-11T16:42:35.440Z,25.80
2018-08-11T16:45:07.832Z,26.50
2018-08-11T16:47:40.238Z,27.20
2018-08-11T16:50:12.518Z,26.90
2018-08-11T16:52:44.904Z,26.70
2018-08-11T16:55:20.114Z,26.80
2018-08-11T16:57:52.372Z,26.90
2018-08-11T17:00:24.802Z,26.80
2018-08-11T17:02:57.179Z,27.10
2018-08-11T17:05:29.681Z,26.80
2018-08-11T17:08:03.834Z,26.80
2018-08-11T17:10:36.261Z,26.80
2018-08-11T17:13:09.117Z,27.00
2018-08-11T17:15:41.508Z,26.90
2018-08-11T17:18:14.572Z,26.90
2018-08-11T17:20:52.155Z,27.30
2018-08-11T17:23:25.119Z,27.30
2018-08-11T17:25:57.397Z,26.40
2018-08-11T17:28:30.592Z,26.30
2018-08-11T17:31:03.259Z,26.10
2018-08-11T17:33:35.805Z,26.60
2018-08-11T17:36:08.265Z,27.00
2018-08-11T17:38:40.891Z,26.80
2018-08-11T17:41:13.320Z,26.60
2018-08-11T17:43:46.242Z,26.40
2018-08-11T17:46:18.673Z,26.20
2018-08-11T17:48:50.897Z,27.20
2018-08-11T17:51:23.446Z,27.20
2018-08-11T17:53:55.772Z,27.60
2018-08-11T17:56:28.116Z,27.90
2018-08-11T17:59:00.316Z,27.40
2018-08-11T18:01:32.728Z,27.20
2018-08-11T18:04:05.374Z,27.30
2018-08-11T18:06:37.730Z,27.40
2018-08-11T18:09:12.941Z,27.30
2018-08-11T18:11:45.130Z,27.80
2018-08-11T18:14:17.389Z,27.90
2018-08-11T18:16:49.518Z,27.70
2018-08-11T18:19:21.791Z,27.40
2018-08-11T18:21:54.005Z,26.60
2018-08-11T18:24:26.346Z,27.40
2018-08-11T18:26:58.772Z,27.40
2018-08-11T18:29:31.094Z,27.10
2018-08-11T18:32:03.433Z,27.80
2018-08-11T18:35:20.254Z,28.10
2018-08-11T18:37:53.397Z,27.90
2018-08-11T18:40:26.146Z,27.70
2018-08-11T18:42:58.956Z,28.00
2018-08-11T18:45:31.878Z,28.60
2018-08-11T18:48:05.356Z,28.90
2018-08-11T18:50:40.438Z,27.90
2018-08-11T18:53:13.383Z,27.60
2018-08-11T18:55:46.328Z,27.70
2018-08-11T18:58:19.645Z,27.30
2018-08-11T19:00:52.510Z,27.40
2018-08-11T19:03:27.740Z,27.80
2018-08-11T19:06:00.606Z,27.30
2018-08-11T19:08:33.329Z,27.70
2018-08-11T19:14:28.536Z,27.90
2018-08-11T19:17:01.462Z,27.40
2018-08-11T19:19:34.370Z,27.50
2018-08-11T19:22:08.348Z,27.40
2018-08-11T19:28:15.291Z,27.30
2018-08-11T19:30:47.865Z,27.50
2018-08-11T19:33:20.310Z,27.70
2018-08-11T19:35:54.007Z,27.60
2018-08-11T19:38:26.619Z,27.70
2018-08-11T19:40:59.471Z,27.80
2018-08-11T19:43:32.181Z,27.90
2018-08-11T19:46:08.725Z,27.50
2018-08-11T19:48:41.753Z,27.50
2018-08-11T19:54:34.962Z,27.60
2018-08-11T19:57:08.760Z,27.70
2018-08-11T19:59:41.580Z,27.20
2018-08-11T20:02:13.979Z,27.10
2018-08-11T20:04:46.314Z,26.80
2018-08-11T20:07:19.780Z,26.80
2018-08-11T20:09:52.737Z,26.80
2018-08-11T20:12:25.369Z,26.80
2018-08-11T20:14:57.878Z,26.80
2018-08-11T20:21:01.925Z,26.90
2018-08-11T20:26:55.699Z,27.50
2018-08-11T20:29:28.463Z,27.60
2018-08-11T20:32:01.376Z,27.10
2018-08-11T20:34:34.082Z,26.70
2018-08-11T20:37:08.646Z,27.10
2018-08-11T20:39:41.360Z,27.50
2018-08-11T20:42:14.225Z,27.50
2018-08-11T20:44:47.660Z,27.50
2018-08-11T20:47:21.224Z,26.90
2018-08-11T20:49:53.929Z,26.60
2018-08-11T20:52:26.724Z,27.00
2018-08-11T20:54:59.439Z,27.30
2018-08-11T20:57:32.303Z,26.90
2018-08-11T21:00:05.209Z,26.90
2018-08-11T21:02:38.083Z,26.70
2018-08-11T21:05:14.440Z,27.00
2018-08-11T21:07:47.223Z,26.50
2018-08-11T21:10:19.913Z,26.70
2018-08-11T21:12:56.312Z,27.00
2018-08-11T21:15:29.153Z,27.10
2018-08-11T21:18:01.798Z,27.00
2018-08-11T21:20:34.557Z,27.30
2018-08-11T21:23:07.705Z,26.90
2018-08-11T21:25:40.613Z,26.80
2018-08-11T21:28:13.339Z,26.90
2018-08-11T21:30:45.915Z,26.90
2018-08-11T21:33:18.552Z,26.60
2018-08-11T21:35:51.293Z,26.10
2018-08-11T21:38:23.984Z,26.50
2018-08-11T21:40:56.658Z,26.50
2018-08-11T21:43:29.657Z,26.40
2018-08-11T21:46:02.527Z,26.10
2018-08-11T21:48:35.235Z,25.80
2018-08-11T21:51:08.047Z,26.00
2018-08-11T21:53:40.727Z,26.40
2018-08-11T21:56:13.436Z,26.40
2018-08-11T21:58:46.058Z,26.10
2018-08-11T22:01:19.407Z,26.10
2018-08-11T22:03:52.117Z,26.40
2018-08-11T22:06:24.741Z,26.30
2018-08-11T22:08:57.310Z,26.60
2018-08-11T22:11:29.998Z,26.60
2018-08-11T22:14:02.557Z,26.50
2018-08-11T22:16:38.443Z,26.20
2018-08-11T22:19:11.220Z,26.30
2018-08-11T22:21:44.017Z,26.30
2018-08-11T22:24:16.573Z,26.50
2018-08-11T22:26:49.925Z,26.30
2018-08-11T22:29:22.661Z,25.70
2018-08-11T22:32:28.083Z,25.80
2018-08-11T22:35:01.283Z,26.10
2018-08-11T22:37:34.472Z,26.50
2018-08-11T22:40:08.391Z,26.90
2018-08-11T22:42:41.441Z,26.70
2018-08-11T22:45:14.797Z,26.40
2018-08-11T22:47:47.519Z,26.10
2018-08-11T22:50:20.949Z,26.10
2018-08-11T22:56:14.485Z,25.80
2018-08-11T22:58:47.343Z,25.30
2018-08-11T23:01:20.022Z,25.20
2018-08-11T23:03:53.635Z,25.10
2018-08-11T23:06:26.345Z,25.10
2018-08-11T23:08:59.113Z,25.20
2018-08-11T23:11:32.277Z,24.90
2018-08-11T23:14:05.758Z,24.80
2018-08-11T23:16:38.535Z,24.50
2018-08-11T23:19:11.237Z,24.50
2018-08-11T23:21:44.124Z,24.30
2018-08-11T23:24:16.859Z,24.30
2018-08-11T23:26:49.917Z,24.10
2018-08-11T23:29:24.295Z,23.90
2018-08-11T23:31:57.060Z,23.80
2018-08-11T23:34:30.800Z,23.80
2018-08-11T23:37:01.677Z,23.80
2018-08-11T23:39:32.649Z,23.70
2018-08-11T23:42:03.695Z,23.60
2018-08-11T23:45:06.012Z,23.40
2018-08-11T23:47:36.645Z,23.40
2018-08-11T23:50:08.199Z,23.40
2018-08-11T23:52:38.887Z,23.50
2018-08-11T23:55:10.944Z,23.50
2018-08-11T23:57:41.704Z,23.30
